sensor_id;sensor_type;location;lat;lon;timestamp;P1;durP1;ratioP1;P2;durP2;ratioP2
38609;SDS011;24367;51.640;9.566;2023-08-08T00:02:00;3.20;;;1.40;;
38609;SDS011;24367;51.640;9.566;2023-08-08T00:04:26;3.55;;;1.38;;
38609;SDS011;24367;51.640;9.566;2023-08-08T00:06:53;3.40;;;1.42;;
38609;SDS011;24367;51.640;9.566;2023-08-08T00:09:19;2.53;;;1.40;;
38609;SDS011;24367;51.640;9.566;2023-08-08T00:11:46;2.95;;;1.20;;
38609;SDS011;24367;51.640;9.566;2023-08-08T00:14:14;3.80;;;1.40;;
38609;SDS011;24367;51.640;9.566;2023-08-08T00:16:41;1.98;;;1.25;;
38609;SDS011;24367;51.640;9.566;2023-08-08T00:19:07;3.70;;;1.25;;
38609;SDS011;24367;51.640;9.566;2023-08-08T00:21:34;2.47;;;1.33;;
38609;SDS011;24367;51.640;9.566;2023-08-08T00:24:01;2.33;;;1.38;;
38609;SDS011;24367;51.640;9.566;2023-08-08T00:26:27;3.50;;;1.38;;
38609;SDS011;24367;51.640;9.566;2023-08-08T00:28:54;4.68;;;1.52;;
38609;SDS011;24367;51.640;9.566;2023-08-08T00:31:22;1.52;;;1.05;;
38609;SDS011;24367;51.640;9.566;2023-08-08T00:33:48;2.63;;;1.50;;
38609;SDS011;24367;51.640;9.566;2023-08-08T00:36:15;3.65;;;1.35;;
38609;SDS011;24367;51.640;9.566;2023-08-08T00:38:41;3.08;;;1.52;;
38609;SDS011;24367;51.640;9.566;2023-08-08T00:41:07;2.63;;;1.20;;
38609;SDS011;24367;51.640;9.566;2023-08-08T00:43:34;3.00;;;1.50;;
38609;SDS011;24367;51.640;9.566;2023-08-08T00:46:00;4.22;;;1.60;;
38609;SDS011;24367;51.640;9.566;2023-08-08T00:48:29;1.85;;;1.05;;
38609;SDS011;24367;51.640;9.566;2023-08-08T00:50:56;1.98;;;1.23;;
38609;SDS011;24367;51.640;9.566;2023-08-08T00:53:24;2.75;;;1.20;;
38609;SDS011;24367;51.640;9.566;2023-08-08T00:55:52;2.30;;;1.20;;
38609;SDS011;24367;51.640;9.566;2023-08-08T00:58:19;3.50;;;1.50;;
38609;SDS011;24367;51.640;9.566;2023-08-08T01:00:46;2.97;;;1.30;;
38609;SDS011;24367;51.640;9.566;2023-08-08T01:03:13;2.20;;;1.25;;
38609;SDS011;24367;51.640;9.566;2023-08-08T01:05:43;1.75;;;1.10;;
38609;SDS011;24367;51.640;9.566;2023-08-08T01:08:15;3.42;;;1.42;;
38609;SDS011;24367;51.640;9.566;2023-08-08T01:10:42;2.60;;;1.40;;
38609;SDS011;24367;51.640;9.566;2023-08-08T01:13:09;2.25;;;1.30;;
38609;SDS011;24367;51.640;9.566;2023-08-08T01:15:38;2.35;;;1.20;;
38609;SDS011;24367;51.640;9.566;2023-08-08T01:18:06;2.75;;;1.23;;
38609;SDS011;24367;51.640;9.566;2023-08-08T01:20:34;3.70;;;1.42;;
38609;SDS011;24367;51.640;9.566;2023-08-08T01:23:09;4.45;;;1.15;;
38609;SDS011;24367;51.640;9.566;2023-08-08T01:25:38;2.15;;;1.25;;
38609;SDS011;24367;51.640;9.566;2023-08-08T01:28:06;2.40;;;1.58;;
38609;SDS011;24367;51.640;9.566;2023-08-08T01:30:33;2.30;;;1.30;;
38609;SDS011;24367;51.640;9.566;2023-08-08T01:33:00;2.58;;;1.30;;
38609;SDS011;24367;51.640;9.566;2023-08-08T01:35:28;3.03;;;1.35;;
38609;SDS011;24367;51.640;9.566;2023-08-08T01:37:58;2.40;;;1.30;;
38609;SDS011;24367;51.640;9.566;2023-08-08T01:40:27;2.78;;;1.52;;
38609;SDS011;24367;51.640;9.566;2023-08-08T01:42:56;2.17;;;1.30;;
38609;SDS011;24367;51.640;9.566;2023-08-08T01:45:24;3.08;;;1.50;;
38609;SDS011;24367;51.640;9.566;2023-08-08T01:47:50;3.28;;;1.25;;
38609;SDS011;24367;51.640;9.566;2023-08-08T01:50:17;3.85;;;1.20;;
38609;SDS011;24367;51.640;9.566;2023-08-08T01:52:43;1.90;;;1.10;;
38609;SDS011;24367;51.640;9.566;2023-08-08T01:55:10;2.47;;;1.20;;
38609;SDS011;24367;51.640;9.566;2023-08-08T01:57:37;2.40;;;1.60;;
38609;SDS011;24367;51.640;9.566;2023-08-08T02:00:06;2.47;;;1.60;;
38609;SDS011;24367;51.640;9.566;2023-08-08T02:02:40;2.60;;;1.27;;
38609;SDS011;24367;51.640;9.566;2023-08-08T02:05:07;3.60;;;1.70;;
38609;SDS011;24367;51.640;9.566;2023-08-08T02:07:33;2.88;;;1.35;;
38609;SDS011;24367;51.640;9.566;2023-08-08T02:10:00;5.07;;;1.30;;
38609;SDS011;24367;51.640;9.566;2023-08-08T02:12:26;2.92;;;1.20;;
38609;SDS011;24367;51.640;9.566;2023-08-08T02:14:53;2.85;;;1.85;;
38609;SDS011;24367;51.640;9.566;2023-08-08T02:17:21;2.92;;;1.23;;
38609;SDS011;24367;51.640;9.566;2023-08-08T02:19:48;2.60;;;1.25;;
38609;SDS011;24367;51.640;9.566;2023-08-08T02:22:14;1.58;;;1.10;;
38609;SDS011;24367;51.640;9.566;2023-08-08T02:24:41;2.13;;;1.17;;
38609;SDS011;24367;51.640;9.566;2023-08-08T02:27:07;2.10;;;1.30;;
38609;SDS011;24367;51.640;9.566;2023-08-08T02:29:35;2.40;;;1.30;;
38609;SDS011;24367;51.640;9.566;2023-08-08T02:32:01;1.85;;;1.20;;
38609;SDS011;24367;51.640;9.566;2023-08-08T02:34:29;1.92;;;1.20;;
38609;SDS011;24367;51.640;9.566;2023-08-08T02:36:56;2.25;;;1.10;;
38609;SDS011;24367;51.640;9.566;2023-08-08T02:39:22;2.45;;;1.20;;
38609;SDS011;24367;51.640;9.566;2023-08-08T02:41:49;2.72;;;1.30;;
38609;SDS011;24367;51.640;9.566;2023-08-08T02:44:15;3.60;;;1.38;;
38609;SDS011;24367;51.640;9.566;2023-08-08T02:46:42;2.65;;;1.20;;
38609;SDS011;24367;51.640;9.566;2023-08-08T02:49:08;2.90;;;1.40;;
38609;SDS011;24367;51.640;9.566;2023-08-08T02:51:36;2.53;;;1.45;;
38609;SDS011;24367;51.640;9.566;2023-08-08T02:54:03;4.13;;;1.35;;
38609;SDS011;24367;51.640;9.566;2023-08-08T02:56:32;2.00;;;1.40;;
38609;SDS011;24367;51.640;9.566;2023-08-08T02:58:58;7.95;;;1.65;;
38609;SDS011;24367;51.640;9.566;2023-08-08T03:01:25;2.35;;;1.48;;
38609;SDS011;24367;51.640;9.566;2023-08-08T03:03:53;2.17;;;1.30;;
38609;SDS011;24367;51.640;9.566;2023-08-08T03:06:22;2.97;;;1.20;;
38609;SDS011;24367;51.640;9.566;2023-08-08T03:08:51;2.53;;;1.20;;
38609;SDS011;24367;51.640;9.566;2023-08-08T03:11:18;1.67;;;1.10;;
38609;SDS011;24367;51.640;9.566;2023-08-08T03:13:46;3.97;;;1.15;;
38609;SDS011;24367;51.640;9.566;2023-08-08T03:16:13;2.10;;;1.20;;
38609;SDS011;24367;51.640;9.566;2023-08-08T03:18:39;2.33;;;1.25;;
38609;SDS011;24367;51.640;9.566;2023-08-08T03:21:06;2.58;;;1.10;;
38609;SDS011;24367;51.640;9.566;2023-08-08T03:23:33;2.83;;;1.15;;
38609;SDS011;24367;51.640;9.566;2023-08-08T03:26:01;2.75;;;1.42;;
38609;SDS011;24367;51.640;9.566;2023-08-08T03:28:28;3.78;;;1.20;;
38609;SDS011;24367;51.640;9.566;2023-08-08T03:30:56;2.47;;;1.20;;
38609;SDS011;24367;51.640;9.566;2023-08-08T03:33:22;3.20;;;1.35;;
38609;SDS011;24367;51.640;9.566;2023-08-08T03:35:49;1.90;;;1.02;;
38609;SDS011;24367;51.640;9.566;2023-08-08T03:38:16;2.25;;;1.20;;
38609;SDS011;24367;51.640;9.566;2023-08-08T03:40:43;2.10;;;1.10;;
38609;SDS011;24367;51.640;9.566;2023-08-08T03:43:11;2.00;;;1.30;;
38609;SDS011;24367;51.640;9.566;2023-08-08T03:45:38;2.92;;;1.10;;
38609;SDS011;24367;51.640;9.566;2023-08-08T03:48:05;1.98;;;1.02;;
38609;SDS011;24367;51.640;9.566;2023-08-08T03:50:32;1.63;;;1.10;;
38609;SDS011;24367;51.640;9.566;2023-08-08T03:52:58;3.45;;;1.30;;
38609;SDS011;24367;51.640;9.566;2023-08-08T03:55:25;2.58;;;1.00;;
38609;SDS011;24367;51.640;9.566;2023-08-08T03:57:51;2.33;;;1.13;;
38609;SDS011;24367;51.640;9.566;2023-08-08T04:00:19;2.35;;;1.25;;
38609;SDS011;24367;51.640;9.566;2023-08-08T04:02:46;1.65;;;1.05;;
38609;SDS011;24367;51.640;9.566;2023-08-08T04:05:12;2.10;;;1.17;;
38609;SDS011;24367;51.640;9.566;2023-08-08T04:07:39;2.10;;;1.30;;
38609;SDS011;24367;51.640;9.566;2023-08-08T04:10:06;3.20;;;1.10;;
38609;SDS011;24367;51.640;9.566;2023-08-08T04:12:33;2.50;;;1.50;;
38609;SDS011;24367;51.640;9.566;2023-08-08T04:14:59;3.55;;;2.08;;
38609;SDS011;24367;51.640;9.566;2023-08-08T04:17:27;5.57;;;3.13;;
38609;SDS011;24367;51.640;9.566;2023-08-08T04:19:54;5.63;;;2.90;;
38609;SDS011;24367;51.640;9.566;2023-08-08T04:22:20;8.55;;;2.75;;
38609;SDS011;24367;51.640;9.566;2023-08-08T04:24:47;11.45;;;4.82;;
38609;SDS011;24367;51.640;9.566;2023-08-08T04:27:13;8.10;;;2.50;;
38609;SDS011;24367;51.640;9.566;2023-08-08T04:29:40;6.70;;;1.85;;
38609;SDS011;24367;51.640;9.566;2023-08-08T04:32:06;8.00;;;1.65;;
38609;SDS011;24367;51.640;9.566;2023-08-08T04:34:34;4.07;;;1.58;;
38609;SDS011;24367;51.640;9.566;2023-08-08T04:37:01;6.82;;;1.45;;
38609;SDS011;24367;51.640;9.566;2023-08-08T04:39:27;5.38;;;1.40;;
38609;SDS011;24367;51.640;9.566;2023-08-08T04:41:54;2.88;;;1.30;;
38609;SDS011;24367;51.640;9.566;2023-08-08T04:44:20;4.50;;;1.50;;
38609;SDS011;24367;51.640;9.566;2023-08-08T04:46:47;2.42;;;1.40;;
38609;SDS011;24367;51.640;9.566;2023-08-08T04:49:13;2.63;;;1.00;;
38609;SDS011;24367;51.640;9.566;2023-08-08T04:51:41;2.50;;;1.30;;
38609;SDS011;24367;51.640;9.566;2023-08-08T04:54:07;3.38;;;1.23;;
38609;SDS011;24367;51.640;9.566;2023-08-08T04:56:34;2.95;;;1.30;;
38609;SDS011;24367;51.640;9.566;2023-08-08T04:59:00;27.25;;;2.05;;
38609;SDS011;24367;51.640;9.566;2023-08-08T05:01:27;5.57;;;1.20;;
38609;SDS011;24367;51.640;9.566;2023-08-08T05:03:53;12.52;;;1.55;;
38609;SDS011;24367;51.640;9.566;2023-08-08T05:06:20;2.95;;;1.10;;
38609;SDS011;24367;51.640;9.566;2023-08-08T05:08:48;5.38;;;1.30;;
38609;SDS011;24367;51.640;9.566;2023-08-08T05:11:15;5.32;;;1.15;;
38609;SDS011;24367;51.640;9.566;2023-08-08T05:13:42;4.43;;;1.05;;
38609;SDS011;24367;51.640;9.566;2023-08-08T05:16:09;7.70;;;1.45;;
38609;SDS011;24367;51.640;9.566;2023-08-08T05:18:35;2.88;;;1.40;;
38609;SDS011;24367;51.640;9.566;2023-08-08T05:21:02;4.95;;;1.45;;
38609;SDS011;24367;51.640;9.566;2023-08-08T05:23:28;4.75;;;1.52;;
38609;SDS011;24367;51.640;9.566;2023-08-08T05:25:56;3.35;;;1.60;;
38609;SDS011;24367;51.640;9.566;2023-08-08T05:28:22;2.35;;;1.17;;
38609;SDS011;24367;51.640;9.566;2023-08-08T05:30:49;5.18;;;1.48;;
38609;SDS011;24367;51.640;9.566;2023-08-08T05:33:15;4.05;;;1.25;;
38609;SDS011;24367;51.640;9.566;2023-08-08T05:35:42;4.65;;;1.30;;
38609;SDS011;24367;51.640;9.566;2023-08-08T05:38:08;6.60;;;1.63;;
38609;SDS011;24367;51.640;9.566;2023-08-08T05:40:35;3.25;;;1.20;;
38609;SDS011;24367;51.640;9.566;2023-08-08T05:43:03;8.68;;;1.42;;
38609;SDS011;24367;51.640;9.566;2023-08-08T05:45:29;3.55;;;1.27;;
38609;SDS011;24367;51.640;9.566;2023-08-08T05:47:56;3.83;;;1.60;;
38609;SDS011;24367;51.640;9.566;2023-08-08T05:50:25;19.13;;;2.33;;
38609;SDS011;24367;51.640;9.566;2023-08-08T05:52:52;5.43;;;1.60;;
38609;SDS011;24367;51.640;9.566;2023-08-08T05:55:19;5.25;;;1.23;;
38609;SDS011;24367;51.640;9.566;2023-08-08T05:57:45;4.47;;;1.70;;
38609;SDS011;24367;51.640;9.566;2023-08-08T06:00:13;3.95;;;1.20;;
38609;SDS011;24367;51.640;9.566;2023-08-08T06:02:41;5.28;;;1.50;;
38609;SDS011;24367;51.640;9.566;2023-08-08T06:05:08;4.30;;;1.38;;
38609;SDS011;24367;51.640;9.566;2023-08-08T06:07:34;7.13;;;1.67;;
38609;SDS011;24367;51.640;9.566;2023-08-08T06:10:01;22.70;;;2.60;;
38609;SDS011;24367;51.640;9.566;2023-08-08T06:12:27;8.85;;;1.50;;
38609;SDS011;24367;51.640;9.566;2023-08-08T06:14:54;6.28;;;1.35;;
38609;SDS011;24367;51.640;9.566;2023-08-08T06:17:21;5.07;;;1.30;;
38609;SDS011;24367;51.640;9.566;2023-08-08T06:19:48;3.55;;;1.30;;
38609;SDS011;24367;51.640;9.566;2023-08-08T06:22:15;3.50;;;1.20;;
38609;SDS011;24367;51.640;9.566;2023-08-08T06:24:41;4.13;;;1.13;;
38609;SDS011;24367;51.640;9.566;2023-08-08T06:27:08;2.83;;;1.02;;
38609;SDS011;24367;51.640;9.566;2023-08-08T06:29:34;15.00;;;1.85;;
38609;SDS011;24367;51.640;9.566;2023-08-08T06:32:01;4.32;;;1.25;;
38609;SDS011;24367;51.640;9.566;2023-08-08T06:34:29;7.55;;;1.30;;
38609;SDS011;24367;51.640;9.566;2023-08-08T06:36:55;4.00;;;1.33;;
38609;SDS011;24367;51.640;9.566;2023-08-08T06:39:22;3.88;;;1.38;;
38609;SDS011;24367;51.640;9.566;2023-08-08T06:41:48;3.78;;;1.42;;
38609;SDS011;24367;51.640;9.566;2023-08-08T06:44:19;3.45;;;1.20;;
38609;SDS011;24367;51.640;9.566;2023-08-08T06:46:45;5.35;;;1.30;;
38609;SDS011;24367;51.640;9.566;2023-08-08T06:49:12;3.55;;;1.10;;
38609;SDS011;24367;51.640;9.566;2023-08-08T06:51:39;5.13;;;1.48;;
38609;SDS011;24367;51.640;9.566;2023-08-08T06:54:06;3.85;;;1.20;;
38609;SDS011;24367;51.640;9.566;2023-08-08T06:56:33;2.92;;;1.00;;
38609;SDS011;24367;51.640;9.566;2023-08-08T06:58:59;2.70;;;0.95;;
38609;SDS011;24367;51.640;9.566;2023-08-08T07:01:25;3.75;;;1.05;;
38609;SDS011;24367;51.640;9.566;2023-08-08T07:03:52;2.25;;;1.20;;
38609;SDS011;24367;51.640;9.566;2023-08-08T07:06:19;2.50;;;1.23;;
38609;SDS011;24367;51.640;9.566;2023-08-08T07:08:46;3.65;;;1.10;;
38609;SDS011;24367;51.640;9.566;2023-08-08T07:11:13;4.90;;;1.40;;
38609;SDS011;24367;51.640;9.566;2023-08-08T07:13:39;4.78;;;1.38;;
38609;SDS011;24367;51.640;9.566;2023-08-08T07:16:06;2.67;;;1.00;;
38609;SDS011;24367;51.640;9.566;2023-08-08T07:18:32;3.08;;;1.45;;
38609;SDS011;24367;51.640;9.566;2023-08-08T07:20:59;2.35;;;1.08;;
38609;SDS011;24367;51.640;9.566;2023-08-08T07:23:25;5.65;;;1.40;;
38609;SDS011;24367;51.640;9.566;2023-08-08T07:25:53;5.05;;;1.23;;
38609;SDS011;24367;51.640;9.566;2023-08-08T07:28:20;1.92;;;0.98;;
38609;SDS011;24367;51.640;9.566;2023-08-08T07:30:47;1.77;;;1.00;;
38609;SDS011;24367;51.640;9.566;2023-08-08T07:33:13;3.88;;;1.10;;
38609;SDS011;24367;51.640;9.566;2023-08-08T07:35:40;2.15;;;1.00;;
38609;SDS011;24367;51.640;9.566;2023-08-08T07:38:06;3.05;;;1.20;;
38609;SDS011;24367;51.640;9.566;2023-08-08T07:40:33;7.20;;;1.42;;
38609;SDS011;24367;51.640;9.566;2023-08-08T07:43:01;5.75;;;1.30;;
38609;SDS011;24367;51.640;9.566;2023-08-08T07:45:27;4.93;;;1.52;;
38609;SDS011;24367;51.640;9.566;2023-08-08T07:47:53;2.58;;;1.20;;
38609;SDS011;24367;51.640;9.566;2023-08-08T07:50:20;1.67;;;1.00;;
38609;SDS011;24367;51.640;9.566;2023-08-08T07:52:46;3.78;;;1.10;;
38609;SDS011;24367;51.640;9.566;2023-08-08T07:55:13;3.63;;;1.20;;
38609;SDS011;24367;51.640;9.566;2023-08-08T07:57:39;1.95;;;1.00;;
38609;SDS011;24367;51.640;9.566;2023-08-08T08:00:07;4.95;;;1.63;;
38609;SDS011;24367;51.640;9.566;2023-08-08T08:02:40;1.95;;;1.00;;
38609;SDS011;24367;51.640;9.566;2023-08-08T08:05:08;2.67;;;0.90;;
38609;SDS011;24367;51.640;9.566;2023-08-08T08:07:35;3.95;;;1.30;;
38609;SDS011;24367;51.640;9.566;2023-08-08T08:10:02;3.58;;;1.20;;
38609;SDS011;24367;51.640;9.566;2023-08-08T08:12:30;2.90;;;1.20;;
38609;SDS011;24367;51.640;9.566;2023-08-08T08:14:57;2.35;;;1.30;;
38609;SDS011;24367;51.640;9.566;2023-08-08T08:17:24;3.15;;;1.23;;
38609;SDS011;24367;51.640;9.566;2023-08-08T08:19:52;3.17;;;1.02;;
38609;SDS011;24367;51.640;9.566;2023-08-08T08:22:19;3.22;;;1.17;;
38609;SDS011;24367;51.640;9.566;2023-08-08T08:24:45;8.05;;;1.13;;
38609;SDS011;24367;51.640;9.566;2023-08-08T08:27:12;4.78;;;1.25;;
38609;SDS011;24367;51.640;9.566;2023-08-08T08:29:39;5.22;;;0.98;;
38609;SDS011;24367;51.640;9.566;2023-08-08T08:32:05;2.95;;;1.30;;
38609;SDS011;24367;51.640;9.566;2023-08-08T08:34:33;2.50;;;1.30;;
38609;SDS011;24367;51.640;9.566;2023-08-08T08:37:00;3.60;;;1.30;;
38609;SDS011;24367;51.640;9.566;2023-08-08T08:39:27;3.10;;;1.40;;
38609;SDS011;24367;51.640;9.566;2023-08-08T08:41:54;4.15;;;1.20;;
38609;SDS011;24367;51.640;9.566;2023-08-08T08:44:26;2.22;;;1.02;;
38609;SDS011;24367;51.640;9.566;2023-08-08T08:46:54;3.83;;;1.50;;
38609;SDS011;24367;51.640;9.566;2023-08-08T08:49:21;5.50;;;1.50;;
38609;SDS011;24367;51.640;9.566;2023-08-08T08:51:49;3.25;;;1.50;;
38609;SDS011;24367;51.640;9.566;2023-08-08T08:54:16;3.28;;;1.00;;
38609;SDS011;24367;51.640;9.566;2023-08-08T08:56:42;2.15;;;1.35;;
38609;SDS011;24367;51.640;9.566;2023-08-08T08:59:09;4.57;;;1.27;;
38609;SDS011;24367;51.640;9.566;2023-08-08T09:01:35;6.07;;;1.30;;
38609;SDS011;24367;51.640;9.566;2023-08-08T09:04:03;3.25;;;1.20;;
38609;SDS011;24367;51.640;9.566;2023-08-08T09:06:30;3.17;;;1.20;;
38609;SDS011;24367;51.640;9.566;2023-08-08T09:08:58;2.88;;;1.20;;
38609;SDS011;24367;51.640;9.566;2023-08-08T09:11:25;3.25;;;1.45;;
38609;SDS011;24367;51.640;9.566;2023-08-08T09:13:51;2.42;;;1.25;;
38609;SDS011;24367;51.640;9.566;2023-08-08T09:16:18;3.42;;;1.40;;
38609;SDS011;24367;51.640;9.566;2023-08-08T09:18:44;2.22;;;1.25;;
38609;SDS011;24367;51.640;9.566;2023-08-08T09:21:11;2.40;;;1.40;;
38609;SDS011;24367;51.640;9.566;2023-08-08T09:23:37;4.90;;;1.25;;
38609;SDS011;24367;51.640;9.566;2023-08-08T09:26:05;3.30;;;1.40;;
38609;SDS011;24367;51.640;9.566;2023-08-08T09:28:32;6.55;;;1.35;;
38609;SDS011;24367;51.640;9.566;2023-08-08T09:30:58;5.45;;;1.52;;
38609;SDS011;24367;51.640;9.566;2023-08-08T09:33:28;3.65;;;1.10;;
38609;SDS011;24367;51.640;9.566;2023-08-08T09:35:55;4.07;;;1.33;;
38609;SDS011;24367;51.640;9.566;2023-08-08T09:38:21;2.83;;;1.35;;
38609;SDS011;24367;51.640;9.566;2023-08-08T09:40:47;4.53;;;1.60;;
38609;SDS011;24367;51.640;9.566;2023-08-08T09:43:17;7.13;;;2.10;;
38609;SDS011;24367;51.640;9.566;2023-08-08T09:45:43;8.30;;;3.15;;
38609;SDS011;24367;51.640;9.566;2023-08-08T09:48:10;7.38;;;4.25;;
38609;SDS011;24367;51.640;9.566;2023-08-08T09:50:37;9.80;;;4.13;;
38609;SDS011;24367;51.640;9.566;2023-08-08T09:53:04;12.30;;;4.50;;
38609;SDS011;24367;51.640;9.566;2023-08-08T09:55:30;35.67;;;5.22;;
38609;SDS011;24367;51.640;9.566;2023-08-08T09:57:58;8.70;;;3.42;;
38609;SDS011;24367;51.640;9.566;2023-08-08T10:00:26;23.52;;;4.13;;
38609;SDS011;24367;51.640;9.566;2023-08-08T10:02:55;9.60;;;3.33;;
38609;SDS011;24367;51.640;9.566;2023-08-08T10:05:22;13.65;;;3.50;;
38609;SDS011;24367;51.640;9.566;2023-08-08T10:07:50;7.45;;;3.33;;
38609;SDS011;24367;51.640;9.566;2023-08-08T10:10:16;5.88;;;3.17;;
38609;SDS011;24367;51.640;9.566;2023-08-08T10:12:43;6.90;;;3.80;;
38609;SDS011;24367;51.640;9.566;2023-08-08T10:15:11;9.27;;;3.72;;
38609;SDS011;24367;51.640;9.566;2023-08-08T10:17:39;6.88;;;3.95;;
38609;SDS011;24367;51.640;9.566;2023-08-08T10:20:07;10.38;;;3.55;;
38609;SDS011;24367;51.640;9.566;2023-08-08T10:22:37;14.05;;;3.95;;
38609;SDS011;24367;51.640;9.566;2023-08-08T10:25:04;7.30;;;4.18;;
38609;SDS011;24367;51.640;9.566;2023-08-08T10:27:31;6.47;;;3.38;;
38609;SDS011;24367;51.640;9.566;2023-08-08T10:30:02;5.75;;;3.65;;
38609;SDS011;24367;51.640;9.566;2023-08-08T10:32:38;6.03;;;3.60;;
38609;SDS011;24367;51.640;9.566;2023-08-08T10:35:06;7.05;;;3.58;;
38609;SDS011;24367;51.640;9.566;2023-08-08T10:37:33;5.13;;;3.35;;
38609;SDS011;24367;51.640;9.566;2023-08-08T10:39:59;8.48;;;3.45;;
38609;SDS011;24367;51.640;9.566;2023-08-08T10:42:30;7.03;;;3.30;;
38609;SDS011;24367;51.640;9.566;2023-08-08T10:45:01;4.72;;;3.03;;
38609;SDS011;24367;51.640;9.566;2023-08-08T10:47:30;6.70;;;3.47;;
38609;SDS011;24367;51.640;9.566;2023-08-08T10:50:04;8.55;;;3.42;;
38609;SDS011;24367;51.640;9.566;2023-08-08T10:52:32;8.73;;;3.58;;
38609;SDS011;24367;51.640;9.566;2023-08-08T10:55:00;7.45;;;3.03;;
38609;SDS011;24367;51.640;9.566;2023-08-08T10:57:27;5.90;;;3.10;;
38609;SDS011;24367;51.640;9.566;2023-08-08T10:59:53;8.50;;;3.10;;
38609;SDS011;24367;51.640;9.566;2023-08-08T11:02:20;6.35;;;3.10;;
38609;SDS011;24367;51.640;9.566;2023-08-08T11:04:47;7.68;;;3.47;;
38609;SDS011;24367;51.640;9.566;2023-08-08T11:07:15;5.10;;;2.65;;
38609;SDS011;24367;51.640;9.566;2023-08-08T11:09:42;4.45;;;2.35;;
38609;SDS011;24367;51.640;9.566;2023-08-08T11:12:13;7.10;;;3.28;;
38609;SDS011;24367;51.640;9.566;2023-08-08T11:14:40;4.65;;;3.03;;
38609;SDS011;24367;51.640;9.566;2023-08-08T11:17:06;5.85;;;3.20;;
38609;SDS011;24367;51.640;9.566;2023-08-08T11:19:37;7.93;;;2.95;;
38609;SDS011;24367;51.640;9.566;2023-08-08T11:22:08;6.63;;;3.30;;
38609;SDS011;24367;51.640;9.566;2023-08-08T11:24:37;10.98;;;3.20;;
38609;SDS011;24367;51.640;9.566;2023-08-08T11:27:03;14.75;;;3.88;;
38609;SDS011;24367;51.640;9.566;2023-08-08T11:29:30;10.82;;;3.58;;
38609;SDS011;24367;51.640;9.566;2023-08-08T11:31:56;9.80;;;3.17;;
38609;SDS011;24367;51.640;9.566;2023-08-08T11:34:23;10.18;;;3.05;;
38609;SDS011;24367;51.640;9.566;2023-08-08T11:36:49;6.07;;;3.10;;
38609;SDS011;24367;51.640;9.566;2023-08-08T11:39:16;5.85;;;2.92;;
38609;SDS011;24367;51.640;9.566;2023-08-08T11:41:44;6.97;;;3.35;;
38609;SDS011;24367;51.640;9.566;2023-08-08T11:44:11;5.68;;;3.00;;
38609;SDS011;24367;51.640;9.566;2023-08-08T11:46:43;6.15;;;2.55;;
38609;SDS011;24367;51.640;9.566;2023-08-08T11:49:10;8.65;;;3.38;;
38609;SDS011;24367;51.640;9.566;2023-08-08T11:51:37;5.55;;;3.00;;
38609;SDS011;24367;51.640;9.566;2023-08-08T11:54:03;4.82;;;2.47;;
38609;SDS011;24367;51.640;9.566;2023-08-08T11:56:32;5.72;;;2.88;;
38609;SDS011;24367;51.640;9.566;2023-08-08T11:59:00;7.43;;;2.95;;
38609;SDS011;24367;51.640;9.566;2023-08-08T12:01:27;5.40;;;2.97;;
38609;SDS011;24367;51.640;9.566;2023-08-08T12:03:54;7.00;;;2.70;;
38609;SDS011;24367;51.640;9.566;2023-08-08T12:06:21;5.30;;;2.40;;
38609;SDS011;24367;51.640;9.566;2023-08-08T12:08:48;10.30;;;3.28;;
38609;SDS011;24367;51.640;9.566;2023-08-08T12:11:15;6.25;;;3.10;;
38609;SDS011;24367;51.640;9.566;2023-08-08T12:13:43;5.50;;;2.78;;
38609;SDS011;24367;51.640;9.566;2023-08-08T12:16:12;5.32;;;2.72;;
38609;SDS011;24367;51.640;9.566;2023-08-08T12:18:39;6.10;;;2.53;;
38609;SDS011;24367;51.640;9.566;2023-08-08T12:21:06;5.85;;;2.42;;
38609;SDS011;24367;51.640;9.566;2023-08-08T12:23:34;5.72;;;2.45;;
38609;SDS011;24367;51.640;9.566;2023-08-08T12:26:02;7.25;;;2.95;;
38609;SDS011;24367;51.640;9.566;2023-08-08T12:28:30;6.88;;;3.08;;
38609;SDS011;24367;51.640;9.566;2023-08-08T12:30:56;7.40;;;2.65;;
38609;SDS011;24367;51.640;9.566;2023-08-08T12:33:24;6.28;;;2.60;;
38609;SDS011;24367;51.640;9.566;2023-08-08T12:35:51;4.38;;;2.50;;
38609;SDS011;24367;51.640;9.566;2023-08-08T12:38:18;4.35;;;2.33;;
38609;SDS011;24367;51.640;9.566;2023-08-08T12:40:44;6.43;;;2.30;;
38609;SDS011;24367;51.640;9.566;2023-08-08T12:43:11;5.00;;;2.00;;
38609;SDS011;24367;51.640;9.566;2023-08-08T12:45:39;6.38;;;2.40;;
38609;SDS011;24367;51.640;9.566;2023-08-08T12:48:06;4.90;;;2.50;;
38609;SDS011;24367;51.640;9.566;2023-08-08T12:50:33;7.75;;;2.35;;
38609;SDS011;24367;51.640;9.566;2023-08-08T12:53:00;3.63;;;1.90;;
38609;SDS011;24367;51.640;9.566;2023-08-08T12:55:27;10.43;;;2.72;;
38609;SDS011;24367;51.640;9.566;2023-08-08T12:57:53;6.45;;;2.58;;
38609;SDS011;24367;51.640;9.566;2023-08-08T13:00:20;4.85;;;2.00;;
38609;SDS011;24367;51.640;9.566;2023-08-08T13:02:46;7.65;;;2.38;;
38609;SDS011;24367;51.640;9.566;2023-08-08T13:05:13;12.00;;;2.42;;
38609;SDS011;24367;51.640;9.566;2023-08-08T13:07:41;8.43;;;2.38;;
38609;SDS011;24367;51.640;9.566;2023-08-08T13:10:07;6.65;;;2.30;;
38609;SDS011;24367;51.640;9.566;2023-08-08T13:12:35;6.85;;;1.98;;
38609;SDS011;24367;51.640;9.566;2023-08-08T13:15:01;4.90;;;2.15;;
38609;SDS011;24367;51.640;9.566;2023-08-08T13:17:28;5.30;;;2.10;;
38609;SDS011;24367;51.640;9.566;2023-08-08T13:19:55;8.10;;;2.38;;
38609;SDS011;24367;51.640;9.566;2023-08-08T13:22:21;5.20;;;1.95;;
38609;SDS011;24367;51.640;9.566;2023-08-08T13:24:49;11.32;;;2.15;;
38609;SDS011;24367;51.640;9.566;2023-08-08T13:27:15;12.02;;;2.50;;
38609;SDS011;24367;51.640;9.566;2023-08-08T13:29:42;7.07;;;2.28;;
38609;SDS011;24367;51.640;9.566;2023-08-08T13:32:08;6.47;;;1.98;;
38609;SDS011;24367;51.640;9.566;2023-08-08T13:34:35;4.38;;;1.83;;
38609;SDS011;24367;51.640;9.566;2023-08-08T13:37:01;10.27;;;2.85;;
38609;SDS011;24367;51.640;9.566;2023-08-08T13:39:28;10.23;;;2.55;;
38609;SDS011;24367;51.640;9.566;2023-08-08T13:41:56;6.32;;;1.92;;
38609;SDS011;24367;51.640;9.566;2023-08-08T13:44:23;7.00;;;2.10;;
38609;SDS011;24367;51.640;9.566;2023-08-08T13:46:49;6.75;;;2.40;;
38609;SDS011;24367;51.640;9.566;2023-08-08T13:49:16;11.20;;;2.33;;
38609;SDS011;24367;51.640;9.566;2023-08-08T13:51:43;14.40;;;2.67;;
38609;SDS011;24367;51.640;9.566;2023-08-08T13:54:09;14.60;;;2.42;;
38609;SDS011;24367;51.640;9.566;2023-08-08T13:56:36;16.08;;;3.05;;
38609;SDS011;24367;51.640;9.566;2023-08-08T13:59:03;17.23;;;2.65;;
38609;SDS011;24367;51.640;9.566;2023-08-08T14:01:30;13.15;;;2.67;;
38609;SDS011;24367;51.640;9.566;2023-08-08T14:03:57;8.82;;;2.30;;
38609;SDS011;24367;51.640;9.566;2023-08-08T14:06:23;14.82;;;2.35;;
38609;SDS011;24367;51.640;9.566;2023-08-08T14:08:50;12.70;;;2.65;;
38609;SDS011;24367;51.640;9.566;2023-08-08T14:11:17;16.83;;;3.08;;
38609;SDS011;24367;51.640;9.566;2023-08-08T14:13:43;25.80;;;2.95;;
38609;SDS011;24367;51.640;9.566;2023-08-08T14:16:11;10.68;;;3.40;;
38609;SDS011;24367;51.640;9.566;2023-08-08T14:18:38;10.45;;;3.00;;
38609;SDS011;24367;51.640;9.566;2023-08-08T14:21:04;8.65;;;2.40;;
38609;SDS011;24367;51.640;9.566;2023-08-08T14:23:31;20.38;;;3.17;;
38609;SDS011;24367;51.640;9.566;2023-08-08T14:25:57;8.88;;;2.35;;
38609;SDS011;24367;51.640;9.566;2023-08-08T14:28:24;12.90;;;2.25;;
38609;SDS011;24367;51.640;9.566;2023-08-08T14:30:50;13.35;;;2.80;;
38609;SDS011;24367;51.640;9.566;2023-08-08T14:33:18;7.50;;;2.47;;
38609;SDS011;24367;51.640;9.566;2023-08-08T14:35:44;10.88;;;2.67;;
38609;SDS011;24367;51.640;9.566;2023-08-08T14:38:11;12.98;;;2.83;;
38609;SDS011;24367;51.640;9.566;2023-08-08T14:40:37;10.55;;;2.42;;
38609;SDS011;24367;51.640;9.566;2023-08-08T14:43:04;10.50;;;2.50;;
38609;SDS011;24367;51.640;9.566;2023-08-08T14:45:35;6.50;;;2.35;;